El Campo, Texas
Current Conditions -  °F | °C
As of 7:35 PM on Friday 24 Oct 2014 (Local Time) from KARM Reporting Station
Clear Clear  
Wind Chill: 70°   Ceiling: Unl
Heat Index: 70°   Visibility: 10mi
Dew Point: 55°   Wind: 3mph
Humidity: 59%   Direction: 90°E
Pressure: 30.11"   Gusts: NA
Location:  29.22°N, 96.29°W
Report Text: KARM 250035Z AUTO 09003KT 10SM CLR 21/13 A3011 RMK AO2 T02120130
Loading
Personal Weather Stations






























Interactive Weather Map
Tropical Storm Tracking
New forecast layout! Learn more

10-Day Weather Forecast

Advertisements
Track Severe Weather on mobile